Humidity-temperature Sensor

Selected Measurement Type: Relative Humidity

 
Relative Humidity [%]     6 entries per hour
Showing data from 9/21/2019 (00:00:00 Z) to 9/20/2019 (00:01:00 Z)
Previous Next [ Day | 3-Days | 7-Days ]
First Last
Prev [ Day | 3-Days | 7-Days ] Next
First Last

Start Time:     :
End Time:     :     
Time (in GMT) :00 :50 :40 :30 :20 :10
Previous Next [ Day | 3-Days | 7-Days ]
First Last
Prev [ Day | 3-Days | 7-Days ] Next
First Last


123 => good data
MM => data is determined as missing
-- => data not received/configured
Back to Top Back to Top
9/21/2019 00:00 to 23:10 92.23 91.67 92.98 92.57 92.96 92.98
9/20/2019 23:00 to 22:10 93.02 93.43 93.62 94.70 94.17 94.64
9/20/2019 22:00 to 21:10 95.50 94.93 95.11 95.03 95.46 95.05
9/20/2019 21:00 to 20:10 95.40 94.34 93.99 94.62 94.89 94.64
9/20/2019 20:00 to 19:10 94.68 94.46 95.22 95.93 96.14 96.26
9/20/2019 19:00 to 18:10 96.71 96.81 97.45 97.18 96.94 97.20
9/20/2019 18:00 to 17:10 99.04 98.96 99.15 99.43 99.62 99.62
9/20/2019 17:00 to 16:10 99.74 99.74 99.84 -- -- --
9/20/2019 16:00 to 15:10 -- -- -- -- -- --
9/20/2019 15:00 to 14:10 -- 99.45 99.50 99.21 98.70 97.92
9/20/2019 14:00 to 13:10 96.73 94.34 94.13 94.60 93.86 93.68
9/20/2019 13:00 to 12:10 93.07 93.37 93.37 93.39 92.74 92.06
9/20/2019 12:00 to 11:10 91.88 90.49 91.12 91.51 91.92 92.06
9/20/2019 11:00 to 10:10 91.98 92.10 92.53 92.27 92.68 92.62
9/20/2019 10:00 to 9:10 93.29 93.35 92.23 93.02 93.70 95.54
9/20/2019 09:00 to 8:10 95.99 96.32 96.98 97.82 97.04 94.87
9/20/2019 08:00 to 7:10 89.87 90.04 91.55 90.26 89.54 90.79
9/20/2019 07:00 to 6:10 90.83 90.83 90.98 90.53 91.55 90.94
9/20/2019 06:00 to 5:10 91.80 92.82 92.27 93.13 92.98 92.94
9/20/2019 05:00 to 4:10 92.49 92.88 93.88 94.76 93.29 91.51
9/20/2019 04:00 to 3:10 92.06 90.71 89.07 87.93 87.86 89.03
9/20/2019 03:00 to 2:10 88.74 89.71 91.26 92.43 92.08 91.96
9/20/2019 02:00 to 1:10 92.53 87.78 89.83 89.13 87.15 86.72
9/20/2019 01:00 to 0:10 86.70 88.44 86.27 85.30 84.08 85.06